createdAt,value
2023-02-05T08:29:21.334Z,-1.05
2023-02-05T08:31:58.461Z,-0.94
2023-02-05T08:34:28.340Z,-0.87
2023-02-05T08:42:37.191Z,-0.52
2023-02-05T08:45:06.148Z,-0.41
2023-02-05T08:47:37.898Z,-0.59
2023-02-05T09:23:43.685Z,0.27
2023-02-05T09:26:10.521Z,0.40
2023-02-05T09:28:37.317Z,0.38
2023-02-05T09:31:13.817Z,0.40
2023-02-05T09:33:52.773Z,0.36
2023-02-05T09:39:39.591Z,0.25
2023-02-05T09:59:53.087Z,0.65
2023-02-05T10:24:47.948Z,1.42
2023-02-05T10:27:22.939Z,1.31
2023-02-05T10:29:57.925Z,1.41
2023-02-05T10:32:37.500Z,1.77
2023-02-05T10:35:27.217Z,1.54
2023-02-05T10:43:50.941Z,0.61
2023-02-05T10:46:18.794Z,0.95
2023-02-05T10:48:47.077Z,0.77
2023-02-05T11:00:22.577Z,0.61
2023-02-05T11:03:29.883Z,0.84
2023-02-05T11:08:44.847Z,1.29
2023-02-05T11:11:25.779Z,1.49
2023-02-05T11:13:59.289Z,1.45
2023-02-05T11:16:37.566Z,1.92
2023-02-05T11:19:04.330Z,1.98
2023-02-05T11:21:50.924Z,1.78
2023-02-05T11:24:44.804Z,1.42
2023-02-05T11:27:16.708Z,1.63
2023-02-05T11:29:43.769Z,1.76
2023-02-05T11:32:20.021Z,1.79
2023-02-05T11:34:47.247Z,1.94
2023-02-05T11:37:17.903Z,1.86
2023-02-05T11:39:47.331Z,1.73
2023-02-05T11:42:21.475Z,1.71
2023-02-05T11:44:54.077Z,1.40
2023-02-05T11:47:31.371Z,1.35
2023-02-05T11:49:59.465Z,1.28
2023-02-05T11:52:33.270Z,1.28
2023-02-05T11:58:01.053Z,1.69
2023-02-05T12:00:28.790Z,1.97
2023-02-05T12:03:15.981Z,1.45
2023-02-05T12:05:48.659Z,1.62
2023-02-05T12:08:34.841Z,1.62
2023-02-05T12:28:10.877Z,0.68
2023-02-05T12:30:49.234Z,0.82
2023-02-05T12:33:31.598Z,0.97
2023-02-05T12:36:16.801Z,0.98
2023-02-05T12:39:23.885Z,0.84
2023-02-05T12:48:10.480Z,1.32
2023-02-05T12:54:15.332Z,1.60
2023-02-05T12:56:48.213Z,1.16
2023-02-05T13:00:12.357Z,0.85
2023-02-05T13:02:44.236Z,0.93
2023-02-05T13:05:39.202Z,0.80
2023-02-05T13:08:13.962Z,0.96
2023-02-05T13:11:06.010Z,1.23
2023-02-05T13:14:04.930Z,1.23
2023-02-05T13:17:20.101Z,0.71
2023-02-05T13:19:54.969Z,0.57
2023-02-05T13:41:43.299Z,1.48
2023-02-05T13:44:55.444Z,1.33
2023-02-05T13:54:51.780Z,0.43
2023-02-05T14:00:53.262Z,0.33
2023-02-05T14:03:38.853Z,0.47
2023-02-05T14:06:21.842Z,0.79
2023-02-05T14:09:11.794Z,1.00
2023-02-05T14:12:21.674Z,1.15
2023-02-05T14:15:17.666Z,1.28
2023-02-05T14:17:44.641Z,0.98
2023-02-05T14:28:16.214Z,0.76
2023-02-05T14:31:21.450Z,0.45
2023-02-05T14:34:51.953Z,0.14
2023-02-05T14:41:46.297Z,-0.21
2023-02-05T14:44:12.904Z,-0.24
2023-02-05T14:47:14.003Z,-0.24
2023-02-05T14:49:44.567Z,-0.11
2023-02-05T14:52:26.120Z,-0.07
2023-02-05T14:55:07.762Z,-0.04
2023-02-05T14:58:11.007Z,0.04
2023-02-05T15:07:27.660Z,-0.13
2023-02-05T15:10:00.307Z,-0.13
2023-02-05T15:12:35.884Z,-0.26
2023-02-05T15:15:28.735Z,-0.33
2023-02-05T15:18:02.431Z,-0.37
2023-02-05T15:23:40.737Z,-0.48
2023-02-05T15:26:19.526Z,-0.56
2023-02-05T15:29:12.511Z,-0.69
2023-02-05T15:31:41.712Z,-0.75
2023-02-05T15:34:51.510Z,-0.77
2023-02-05T15:37:23.282Z,-0.84
2023-02-05T15:39:59.576Z,-0.81
2023-02-05T15:42:35.431Z,-0.89
2023-02-05T15:45:24.220Z,-1.01
2023-02-05T15:48:17.972Z,-1.14
2023-02-05T15:51:11.133Z,-1.16
2023-02-05T15:53:45.752Z,-1.24
2023-02-05T16:02:33.798Z,-1.42
2023-02-05T16:05:01.978Z,-1.53
2023-02-05T16:07:40.609Z,-1.58
2023-02-05T16:10:23.722Z,-1.52
2023-02-05T16:13:03.734Z,-1.52
2023-02-05T16:15:40.013Z,-1.49
2023-02-05T16:18:14.646Z,-1.40
2023-02-05T16:20:46.439Z,-1.31
2023-02-05T16:23:57.463Z,-1.21
2023-02-05T16:26:44.867Z,-1.24
2023-02-05T16:29:48.007Z,-1.42
2023-02-05T16:32:21.494Z,-1.36
2023-02-05T16:34:48.344Z,-1.31
2023-02-05T16:37:18.449Z,-1.32
2023-02-05T16:39:55.952Z,-1.32
2023-02-05T16:42:43.309Z,-1.24
2023-02-05T16:45:24.537Z,-1.23
2023-02-05T16:48:24.178Z,-1.27
2023-02-05T16:50:51.838Z,-1.32
2023-02-05T16:53:30.139Z,-1.42
2023-02-05T16:56:16.943Z,-1.33
2023-02-05T16:58:47.049Z,-1.21
2023-02-05T17:01:14.108Z,-1.23
2023-02-05T17:03:48.164Z,-1.22
2023-02-05T17:06:17.061Z,-1.16
2023-02-05T17:08:55.342Z,-1.21
2023-02-05T17:44:35.990Z,-1.60
2023-02-05T19:13:05.160Z,-2.04
2023-02-05T19:15:32.276Z,-2.12
2023-02-05T19:18:00.339Z,-2.08
2023-02-05T19:20:40.798Z,-2.09
2023-02-05T19:23:08.396Z,-2.15
2023-02-05T19:25:37.641Z,-2.07
2023-02-05T19:28:04.467Z,-2.21
2023-02-05T19:30:31.039Z,-2.30
2023-02-05T19:33:01.716Z,-2.34
2023-02-05T19:35:28.305Z,-2.42
2023-02-05T19:37:54.926Z,-2.38
2023-02-05T19:40:21.537Z,-2.48
2023-02-05T19:42:48.765Z,-2.61
2023-02-05T19:45:16.097Z,-2.63
2023-02-05T19:47:43.791Z,-2.71
2023-02-05T19:50:10.491Z,-2.78
2023-02-05T19:52:39.525Z,-2.80
2023-02-05T19:55:09.103Z,-2.85
2023-02-05T19:57:35.751Z,-2.90
2023-02-05T20:00:06.833Z,-3.03
2023-02-05T20:02:37.760Z,-3.11
2023-02-05T20:05:04.995Z,-3.13
2023-02-05T20:07:33.942Z,-3.16
2023-02-05T20:10:00.525Z,-3.24
2023-02-05T20:12:27.485Z,-3.34
2023-02-05T20:14:54.090Z,-3.38
2023-02-05T20:17:20.629Z,-3.40
2023-02-05T20:19:47.232Z,-3.38
2023-02-05T20:22:19.709Z,-3.42
2023-02-05T20:24:46.337Z,-3.51
2023-02-05T20:27:12.984Z,-3.57
2023-02-05T20:29:58.165Z,-3.57
2023-02-05T20:32:24.796Z,-3.62
2023-02-05T20:34:51.430Z,-3.68
2023-02-05T20:37:20.098Z,-3.66
2023-02-05T20:39:46.980Z,-3.72
2023-02-05T20:42:14.551Z,-3.76
2023-02-05T20:44:43.093Z,-3.79
2023-02-05T20:47:14.701Z,-3.84
2023-02-05T20:49:42.321Z,-3.86
2023-02-05T20:52:09.796Z,-3.95
2023-02-05T20:54:36.754Z,-4.02
2023-02-05T20:57:03.951Z,-4.06
2023-02-05T20:59:32.882Z,-4.03
2023-02-05T21:02:00.329Z,-4.04
2023-02-05T21:04:26.994Z,-4.08
2023-02-05T21:06:54.006Z,-4.15
2023-02-05T21:09:21.362Z,-4.17
2023-02-05T21:11:50.216Z,-4.15
2023-02-05T21:14:17.308Z,-4.14
2023-02-05T21:16:43.922Z,-4.21
2023-02-05T21:19:11.259Z,-4.25
2023-02-05T21:21:38.562Z,-4.32
2023-02-05T21:24:12.768Z,-4.19
2023-02-05T21:26:42.092Z,-4.40
2023-02-05T21:29:14.771Z,-4.42
2023-02-05T21:31:46.981Z,-4.37
2023-02-05T21:34:36.047Z,-4.44
2023-02-05T21:37:02.776Z,-4.46
2023-02-05T21:39:29.338Z,-4.49
2023-02-05T21:41:55.965Z,-4.53
2023-02-05T21:44:23.208Z,-4.50
2023-02-05T21:46:49.838Z,-4.53
2023-02-05T21:49:16.450Z,-4.58
2023-02-05T21:51:43.103Z,-4.58
2023-02-05T21:54:10.930Z,-4.63
2023-02-05T21:56:40.651Z,-4.66
2023-02-05T21:59:07.886Z,-4.68
2023-02-05T22:01:36.277Z,-4.67
2023-02-05T22:04:07.044Z,-4.68
2023-02-05T22:06:35.528Z,-4.70
2023-02-05T22:09:04.759Z,-4.73
2023-02-05T22:11:31.904Z,-4.79
2023-02-05T22:13:58.617Z,-4.78
2023-02-05T22:16:31.007Z,-4.72
2023-02-05T22:18:59.621Z,-4.77
2023-02-05T22:21:28.982Z,-4.82
2023-02-05T22:23:57.721Z,-4.88
2023-02-05T22:26:30.000Z,-4.80
2023-02-05T22:28:59.245Z,-4.83
2023-02-05T22:31:26.952Z,-4.68
2023-02-05T22:33:53.720Z,-4.73
2023-02-05T22:36:23.003Z,-4.82
2023-02-05T22:38:51.778Z,-4.81
2023-02-05T22:41:21.882Z,-4.95
2023-02-05T22:43:48.535Z,-4.97
2023-02-05T22:46:24.512Z,-5.06
2023-02-05T22:48:52.442Z,-5.09
2023-02-05T22:51:21.777Z,-5.17
2023-02-05T22:53:51.668Z,-5.11
2023-02-05T22:56:18.200Z,-5.13
2023-02-05T22:58:46.971Z,-5.13
2023-02-05T23:01:29.283Z,-5.15
2023-02-05T23:03:57.217Z,-5.18
2023-02-05T23:06:23.733Z,-5.25
2023-02-05T23:09:01.982Z,-5.29
2023-02-05T23:11:30.675Z,-5.21
2023-02-05T23:13:58.631Z,-5.23
2023-02-05T23:16:27.793Z,-5.25
2023-02-05T23:18:58.089Z,-5.28
2023-02-05T23:21:26.966Z,-5.34
2023-02-05T23:23:53.655Z,-5.37
2023-02-05T23:26:24.806Z,-5.40
2023-02-05T23:28:53.737Z,-5.45
2023-02-05T23:31:21.801Z,-5.49
2023-02-05T23:33:48.857Z,-5.53
2023-02-05T23:36:15.548Z,-5.63
2023-02-05T23:38:42.200Z,-5.59
2023-02-05T23:41:09.225Z,-5.56
2023-02-05T23:43:37.083Z,-5.49
2023-02-05T23:46:06.724Z,-5.50
2023-02-05T23:48:34.284Z,-5.50
2023-02-05T23:51:01.257Z,-5.48
2023-02-05T23:53:27.836Z,-5.40
2023-02-05T23:55:54.670Z,-5.43
2023-02-05T23:58:27.943Z,-5.41
